sensor_id;sensor_type;location;lat;lon;timestamp;temperature;humidity
9772;DHT22;4925;52.588;13.370;2023-02-03T00:01:30;4.50;99.90
9772;DHT22;4925;52.588;13.370;2023-02-03T00:03:56;4.50;99.90
9772;DHT22;4925;52.588;13.370;2023-02-03T00:06:22;4.60;99.90
9772;DHT22;4925;52.588;13.370;2023-02-03T00:08:48;4.60;99.90
9772;DHT22;4925;52.588;13.370;2023-02-03T00:11:18;4.60;99.90
9772;DHT22;4925;52.588;13.370;2023-02-03T00:13:44;4.50;99.90
9772;DHT22;4925;52.588;13.370;2023-02-03T00:16:09;4.50;99.90
9772;DHT22;4925;52.588;13.370;2023-02-03T00:18:35;4.50;99.90
9772;DHT22;4925;52.588;13.370;2023-02-03T00:21:01;4.40;99.90
9772;DHT22;4925;52.588;13.370;2023-02-03T00:23:26;4.30;99.90
9772;DHT22;4925;52.588;13.370;2023-02-03T00:25:57;4.30;99.90
9772;DHT22;4925;52.588;13.370;2023-02-03T00:28:23;4.30;99.90
9772;DHT22;4925;52.588;13.370;2023-02-03T00:30:52;4.30;99.90
9772;DHT22;4925;52.588;13.370;2023-02-03T00:33:18;4.20;99.90
9772;DHT22;4925;52.588;13.370;2023-02-03T00:35:44;4.10;99.90
9772;DHT22;4925;52.588;13.370;2023-02-03T00:38:09;4.10;99.90
9772;DHT22;4925;52.588;13.370;2023-02-03T00:40:35;4.10;99.90
9772;DHT22;4925;52.588;13.370;2023-02-03T00:43:01;4.00;99.90
9772;DHT22;4925;52.588;13.370;2023-02-03T00:45:26;3.90;99.90
9772;DHT22;4925;52.588;13.370;2023-02-03T00:47:52;3.80;99.90
9772;DHT22;4925;52.588;13.370;2023-02-03T00:50:18;3.80;99.90
9772;DHT22;4925;52.588;13.370;2023-02-03T00:52:44;3.70;99.90
9772;DHT22;4925;52.588;13.370;2023-02-03T00:55:09;3.70;99.90
9772;DHT22;4925;52.588;13.370;2023-02-03T00:57:35;3.70;99.90
9772;DHT22;4925;52.588;13.370;2023-02-03T01:00:01;3.70;99.90
9772;DHT22;4925;52.588;13.370;2023-02-03T01:02:26;3.60;99.90
9772;DHT22;4925;52.588;13.370;2023-02-03T01:04:52;4.00;99.90
9772;DHT22;4925;52.588;13.370;2023-02-03T01:07:18;3.50;99.90
9772;DHT22;4925;52.588;13.370;2023-02-03T01:09:43;3.60;99.90
9772;DHT22;4925;52.588;13.370;2023-02-03T01:12:09;3.60;99.90
9772;DHT22;4925;52.588;13.370;2023-02-03T01:14:35;3.50;99.90
9772;DHT22;4925;52.588;13.370;2023-02-03T01:17:01;3.50;99.90
9772;DHT22;4925;52.588;13.370;2023-02-03T01:19:26;3.60;99.90
9772;DHT22;4925;52.588;13.370;2023-02-03T01:21:52;3.60;99.90
9772;DHT22;4925;52.588;13.370;2023-02-03T01:24:18;3.60;99.90
9772;DHT22;4925;52.588;13.370;2023-02-03T01:26:43;3.60;99.90
9772;DHT22;4925;52.588;13.370;2023-02-03T01:29:09;3.50;99.90
9772;DHT22;4925;52.588;13.370;2023-02-03T01:31:37;3.50;99.90
9772;DHT22;4925;52.588;13.370;2023-02-03T01:34:05;3.40;99.90
9772;DHT22;4925;52.588;13.370;2023-02-03T01:36:32;3.40;99.90
9772;DHT22;4925;52.588;13.370;2023-02-03T01:38:58;3.40;99.90
9772;DHT22;4925;52.588;13.370;2023-02-03T01:41:30;3.30;99.90
9772;DHT22;4925;52.588;13.370;2023-02-03T01:43:58;3.30;99.90
9772;DHT22;4925;52.588;13.370;2023-02-03T01:46:34;3.30;99.90
9772;DHT22;4925;52.588;13.370;2023-02-03T01:51:42;3.20;99.90
9772;DHT22;4925;52.588;13.370;2023-02-03T01:54:15;3.20;99.90
9772;DHT22;4925;52.588;13.370;2023-02-03T01:56:46;3.10;99.90
9772;DHT22;4925;52.588;13.370;2023-02-03T01:59:15;3.00;99.90
9772;DHT22;4925;52.588;13.370;2023-02-03T02:01:42;3.00;99.90
9772;DHT22;4925;52.588;13.370;2023-02-03T02:04:08;3.00;99.90
9772;DHT22;4925;52.588;13.370;2023-02-03T02:06:34;2.90;99.90
9772;DHT22;4925;52.588;13.370;2023-02-03T02:09:01;3.00;99.90
9772;DHT22;4925;52.588;13.370;2023-02-03T02:11:27;3.00;99.90
9772;DHT22;4925;52.588;13.370;2023-02-03T02:13:56;3.00;99.90
9772;DHT22;4925;52.588;13.370;2023-02-03T02:16:47;3.00;99.90
9772;DHT22;4925;52.588;13.370;2023-02-03T02:30:57;3.10;99.90
9772;DHT22;4925;52.588;13.370;2023-02-03T02:38:53;3.10;99.90
9772;DHT22;4925;52.588;13.370;2023-02-03T02:41:28;3.20;99.90
9772;DHT22;4925;52.588;13.370;2023-02-03T02:46:58;3.20;99.90
9772;DHT22;4925;52.588;13.370;2023-02-03T02:49:36;3.10;99.90
9772;DHT22;4925;52.588;13.370;2023-02-03T02:52:05;3.00;99.90
9772;DHT22;4925;52.588;13.370;2023-02-03T02:54:38;3.00;99.90
9772;DHT22;4925;52.588;13.370;2023-02-03T02:57:05;3.10;99.90
9772;DHT22;4925;52.588;13.370;2023-02-03T02:59:33;3.00;99.90
9772;DHT22;4925;52.588;13.370;2023-02-03T03:01:59;3.00;99.90
9772;DHT22;4925;52.588;13.370;2023-02-03T03:04:27;3.10;99.90
9772;DHT22;4925;52.588;13.370;2023-02-03T03:06:58;3.00;99.90
9772;DHT22;4925;52.588;13.370;2023-02-03T03:09:39;2.90;99.90
9772;DHT22;4925;52.588;13.370;2023-02-03T03:12:13;3.00;99.90
9772;DHT22;4925;52.588;13.370;2023-02-03T03:14:45;3.00;99.90
9772;DHT22;4925;52.588;13.370;2023-02-03T03:17:19;3.00;99.90
9772;DHT22;4925;52.588;13.370;2023-02-03T03:19:51;2.90;99.90
9772;DHT22;4925;52.588;13.370;2023-02-03T03:22:20;3.00;99.90
9772;DHT22;4925;52.588;13.370;2023-02-03T03:24:51;3.00;99.90
9772;DHT22;4925;52.588;13.370;2023-02-03T03:27:23;3.00;99.90
9772;DHT22;4925;52.588;13.370;2023-02-03T03:29:53;3.00;99.90
9772;DHT22;4925;52.588;13.370;2023-02-03T03:32:19;3.10;99.90
9772;DHT22;4925;52.588;13.370;2023-02-03T03:34:46;3.10;99.90
9772;DHT22;4925;52.588;13.370;2023-02-03T03:39:59;3.20;99.90
9772;DHT22;4925;52.588;13.370;2023-02-03T03:42:43;3.20;99.90
9772;DHT22;4925;52.588;13.370;2023-02-03T03:45:21;3.30;99.90
9772;DHT22;4925;52.588;13.370;2023-02-03T03:50:33;3.20;99.90
9772;DHT22;4925;52.588;13.370;2023-02-03T03:53:01;3.30;99.90
9772;DHT22;4925;52.588;13.370;2023-02-03T03:55:30;3.30;99.90
9772;DHT22;4925;52.588;13.370;2023-02-03T03:58:06;3.40;99.90
9772;DHT22;4925;52.588;13.370;2023-02-03T04:00:36;3.40;99.90
9772;DHT22;4925;52.588;13.370;2023-02-03T04:03:22;3.40;99.90
9772;DHT22;4925;52.588;13.370;2023-02-03T04:05:48;3.30;99.90
9772;DHT22;4925;52.588;13.370;2023-02-03T04:08:14;3.40;99.90
9772;DHT22;4925;52.588;13.370;2023-02-03T04:10:41;3.40;99.90
9772;DHT22;4925;52.588;13.370;2023-02-03T04:13:09;3.40;99.90
9772;DHT22;4925;52.588;13.370;2023-02-03T04:15:35;3.50;99.90
9772;DHT22;4925;52.588;13.370;2023-02-03T04:18:01;3.50;99.90
9772;DHT22;4925;52.588;13.370;2023-02-03T04:20:30;3.50;99.90
9772;DHT22;4925;52.588;13.370;2023-02-03T04:22:56;3.60;99.90
9772;DHT22;4925;52.588;13.370;2023-02-03T04:25:24;3.60;99.90
9772;DHT22;4925;52.588;13.370;2023-02-03T04:27:50;3.60;99.90
9772;DHT22;4925;52.588;13.370;2023-02-03T04:30:16;3.70;99.90
9772;DHT22;4925;52.588;13.370;2023-02-03T04:32:43;3.70;99.90
9772;DHT22;4925;52.588;13.370;2023-02-03T04:35:10;3.80;99.90
9772;DHT22;4925;52.588;13.370;2023-02-03T04:37:35;3.90;99.90
9772;DHT22;4925;52.588;13.370;2023-02-03T04:40:01;3.90;99.90
9772;DHT22;4925;52.588;13.370;2023-02-03T04:42:27;3.90;99.90
9772;DHT22;4925;52.588;13.370;2023-02-03T04:44:53;3.90;99.90
9772;DHT22;4925;52.588;13.370;2023-02-03T04:47:19;4.20;99.90
9772;DHT22;4925;52.588;13.370;2023-02-03T04:49:45;4.20;99.90
9772;DHT22;4925;52.588;13.370;2023-02-03T04:52:11;4.30;99.90
9772;DHT22;4925;52.588;13.370;2023-02-03T04:54:37;4.40;99.90
9772;DHT22;4925;52.588;13.370;2023-02-03T04:57:04;4.40;99.90
9772;DHT22;4925;52.588;13.370;2023-02-03T04:59:29;4.40;99.90
9772;DHT22;4925;52.588;13.370;2023-02-03T05:01:55;4.50;99.90
9772;DHT22;4925;52.588;13.370;2023-02-03T05:04:21;4.50;99.90
9772;DHT22;4925;52.588;13.370;2023-02-03T05:06:47;4.60;99.90
9772;DHT22;4925;52.588;13.370;2023-02-03T05:09:12;4.60;99.90
9772;DHT22;4925;52.588;13.370;2023-02-03T05:11:38;4.70;99.90
9772;DHT22;4925;52.588;13.370;2023-02-03T05:14:04;4.70;99.90
9772;DHT22;4925;52.588;13.370;2023-02-03T05:16:30;4.80;99.90
9772;DHT22;4925;52.588;13.370;2023-02-03T05:18:55;4.90;99.90
9772;DHT22;4925;52.588;13.370;2023-02-03T05:21:22;4.90;99.90
9772;DHT22;4925;52.588;13.370;2023-02-03T05:23:48;5.00;99.90
9772;DHT22;4925;52.588;13.370;2023-02-03T05:26:14;5.10;99.90
9772;DHT22;4925;52.588;13.370;2023-02-03T05:28:39;5.20;99.90
9772;DHT22;4925;52.588;13.370;2023-02-03T05:31:05;5.30;99.90
9772;DHT22;4925;52.588;13.370;2023-02-03T05:33:31;5.30;99.90
9772;DHT22;4925;52.588;13.370;2023-02-03T05:35:56;5.40;99.90
9772;DHT22;4925;52.588;13.370;2023-02-03T05:38:22;5.40;99.90
9772;DHT22;4925;52.588;13.370;2023-02-03T05:40:50;5.50;99.90
9772;DHT22;4925;52.588;13.370;2023-02-03T05:43:35;5.60;99.90
9772;DHT22;4925;52.588;13.370;2023-02-03T05:46:05;5.70;99.90
9772;DHT22;4925;52.588;13.370;2023-02-03T05:48:31;5.80;99.90
9772;DHT22;4925;52.588;13.370;2023-02-03T05:50:58;5.80;99.90
9772;DHT22;4925;52.588;13.370;2023-02-03T05:53:24;6.00;99.90
9772;DHT22;4925;52.588;13.370;2023-02-03T05:55:50;6.00;99.90
9772;DHT22;4925;52.588;13.370;2023-02-03T05:58:16;6.10;99.90
9772;DHT22;4925;52.588;13.370;2023-02-03T06:00:42;6.20;99.90
9772;DHT22;4925;52.588;13.370;2023-02-03T06:03:08;6.20;99.90
9772;DHT22;4925;52.588;13.370;2023-02-03T06:05:34;6.20;99.90
9772;DHT22;4925;52.588;13.370;2023-02-03T06:08:01;6.30;99.90
9772;DHT22;4925;52.588;13.370;2023-02-03T06:10:27;6.30;99.90
9772;DHT22;4925;52.588;13.370;2023-02-03T06:12:53;6.40;99.90
9772;DHT22;4925;52.588;13.370;2023-02-03T06:15:19;6.50;99.90
9772;DHT22;4925;52.588;13.370;2023-02-03T06:17:47;6.50;99.90
9772;DHT22;4925;52.588;13.370;2023-02-03T06:20:14;6.50;99.90
9772;DHT22;4925;52.588;13.370;2023-02-03T06:22:41;6.60;99.90
9772;DHT22;4925;52.588;13.370;2023-02-03T06:25:07;6.60;99.90
9772;DHT22;4925;52.588;13.370;2023-02-03T06:27:33;6.60;99.90
9772;DHT22;4925;52.588;13.370;2023-02-03T06:29:59;6.60;99.90
9772;DHT22;4925;52.588;13.370;2023-02-03T06:32:25;6.70;99.90
9772;DHT22;4925;52.588;13.370;2023-02-03T06:34:51;6.70;99.90
9772;DHT22;4925;52.588;13.370;2023-02-03T06:37:16;6.70;99.90
9772;DHT22;4925;52.588;13.370;2023-02-03T06:39:42;6.80;99.90
9772;DHT22;4925;52.588;13.370;2023-02-03T06:42:08;6.80;99.90
9772;DHT22;4925;52.588;13.370;2023-02-03T06:44:33;6.80;99.90
9772;DHT22;4925;52.588;13.370;2023-02-03T06:46:59;6.80;99.90
9772;DHT22;4925;52.588;13.370;2023-02-03T06:49:28;6.80;99.90
9772;DHT22;4925;52.588;13.370;2023-02-03T06:51:54;6.90;99.90
9772;DHT22;4925;52.588;13.370;2023-02-03T06:54:19;6.90;99.90
9772;DHT22;4925;52.588;13.370;2023-02-03T06:56:45;6.90;99.90
9772;DHT22;4925;52.588;13.370;2023-02-03T06:59:11;6.90;99.90
9772;DHT22;4925;52.588;13.370;2023-02-03T07:01:37;7.00;99.90
9772;DHT22;4925;52.588;13.370;2023-02-03T07:04:03;7.00;99.90
9772;DHT22;4925;52.588;13.370;2023-02-03T07:06:29;7.00;99.90
9772;DHT22;4925;52.588;13.370;2023-02-03T07:08:59;7.00;99.90
9772;DHT22;4925;52.588;13.370;2023-02-03T07:11:24;7.00;99.90
9772;DHT22;4925;52.588;13.370;2023-02-03T07:13:51;7.10;99.90
9772;DHT22;4925;52.588;13.370;2023-02-03T07:16:16;7.10;99.90
9772;DHT22;4925;52.588;13.370;2023-02-03T07:18:42;7.10;99.90
9772;DHT22;4925;52.588;13.370;2023-02-03T07:21:08;7.10;99.90
9772;DHT22;4925;52.588;13.370;2023-02-03T07:23:34;7.10;99.90
9772;DHT22;4925;52.588;13.370;2023-02-03T07:26:00;7.10;99.90
9772;DHT22;4925;52.588;13.370;2023-02-03T07:28:27;7.20;99.90
9772;DHT22;4925;52.588;13.370;2023-02-03T07:30:53;7.20;99.90
9772;DHT22;4925;52.588;13.370;2023-02-03T07:33:20;7.30;99.90
9772;DHT22;4925;52.588;13.370;2023-02-03T07:35:57;7.30;99.90
9772;DHT22;4925;52.588;13.370;2023-02-03T07:38:25;7.30;99.90
9772;DHT22;4925;52.588;13.370;2023-02-03T07:40:51;7.30;99.90
9772;DHT22;4925;52.588;13.370;2023-02-03T07:43:17;7.30;99.90
9772;DHT22;4925;52.588;13.370;2023-02-03T07:45:44;7.30;99.90
9772;DHT22;4925;52.588;13.370;2023-02-03T07:48:10;7.30;99.90
9772;DHT22;4925;52.588;13.370;2023-02-03T07:50:36;7.30;99.90
9772;DHT22;4925;52.588;13.370;2023-02-03T07:53:02;7.30;99.90
9772;DHT22;4925;52.588;13.370;2023-02-03T07:55:28;7.30;99.90
9772;DHT22;4925;52.588;13.370;2023-02-03T07:57:55;7.30;99.90
9772;DHT22;4925;52.588;13.370;2023-02-03T08:00:22;7.30;99.90
9772;DHT22;4925;52.588;13.370;2023-02-03T08:02:48;7.30;99.90
9772;DHT22;4925;52.588;13.370;2023-02-03T08:05:14;7.30;99.90
9772;DHT22;4925;52.588;13.370;2023-02-03T08:07:40;7.30;99.90
9772;DHT22;4925;52.588;13.370;2023-02-03T08:10:07;7.30;99.90
9772;DHT22;4925;52.588;13.370;2023-02-03T08:12:33;7.30;99.90
9772;DHT22;4925;52.588;13.370;2023-02-03T08:14:59;7.50;99.90
9772;DHT22;4925;52.588;13.370;2023-02-03T08:17:24;7.40;99.90
9772;DHT22;4925;52.588;13.370;2023-02-03T08:19:50;7.30;99.90
9772;DHT22;4925;52.588;13.370;2023-02-03T08:22:16;7.40;99.90
9772;DHT22;4925;52.588;13.370;2023-02-03T08:24:43;7.30;99.90
9772;DHT22;4925;52.588;13.370;2023-02-03T08:27:21;7.30;99.90
9772;DHT22;4925;52.588;13.370;2023-02-03T08:29:47;7.30;99.90
9772;DHT22;4925;52.588;13.370;2023-02-03T08:32:16;7.30;99.90
9772;DHT22;4925;52.588;13.370;2023-02-03T08:34:42;7.40;99.90
9772;DHT22;4925;52.588;13.370;2023-02-03T08:37:10;7.40;99.90
9772;DHT22;4925;52.588;13.370;2023-02-03T08:39:37;7.40;99.90
9772;DHT22;4925;52.588;13.370;2023-02-03T08:42:03;7.40;99.90
9772;DHT22;4925;52.588;13.370;2023-02-03T08:44:33;7.40;99.90
9772;DHT22;4925;52.588;13.370;2023-02-03T08:46:59;7.40;99.90
9772;DHT22;4925;52.588;13.370;2023-02-03T08:49:27;7.40;99.90
9772;DHT22;4925;52.588;13.370;2023-02-03T08:51:53;7.50;99.90
9772;DHT22;4925;52.588;13.370;2023-02-03T08:54:19;7.50;99.90
9772;DHT22;4925;52.588;13.370;2023-02-03T08:56:46;7.50;99.90
9772;DHT22;4925;52.588;13.370;2023-02-03T08:59:13;7.50;99.90
9772;DHT22;4925;52.588;13.370;2023-02-03T09:01:39;7.50;99.90
9772;DHT22;4925;52.588;13.370;2023-02-03T09:04:06;7.70;99.90
9772;DHT22;4925;52.588;13.370;2023-02-03T09:06:34;7.50;99.90
9772;DHT22;4925;52.588;13.370;2023-02-03T09:09:00;7.50;99.90
9772;DHT22;4925;52.588;13.370;2023-02-03T09:11:25;7.50;99.90
9772;DHT22;4925;52.588;13.370;2023-02-03T09:13:51;7.50;99.90
9772;DHT22;4925;52.588;13.370;2023-02-03T09:16:18;7.50;99.90
9772;DHT22;4925;52.588;13.370;2023-02-03T09:18:46;7.50;99.90
9772;DHT22;4925;52.588;13.370;2023-02-03T09:21:12;7.50;99.90
9772;DHT22;4925;52.588;13.370;2023-02-03T09:23:39;7.60;99.90
9772;DHT22;4925;52.588;13.370;2023-02-03T09:26:07;7.60;99.90
9772;DHT22;4925;52.588;13.370;2023-02-03T09:28:34;7.60;99.90
9772;DHT22;4925;52.588;13.370;2023-02-03T09:31:04;7.70;99.90
9772;DHT22;4925;52.588;13.370;2023-02-03T09:33:31;7.70;99.90
9772;DHT22;4925;52.588;13.370;2023-02-03T09:35:57;7.70;99.90
9772;DHT22;4925;52.588;13.370;2023-02-03T09:38:23;7.70;99.90
9772;DHT22;4925;52.588;13.370;2023-02-03T09:40:55;7.70;99.90
9772;DHT22;4925;52.588;13.370;2023-02-03T09:46:06;7.80;99.90
9772;DHT22;4925;52.588;13.370;2023-02-03T09:48:39;7.80;99.90
9772;DHT22;4925;52.588;13.370;2023-02-03T09:51:16;7.80;99.90
9772;DHT22;4925;52.588;13.370;2023-02-03T09:53:46;7.90;99.90
9772;DHT22;4925;52.588;13.370;2023-02-03T09:56:33;7.90;99.90
9772;DHT22;4925;52.588;13.370;2023-02-03T09:59:00;8.00;99.90
9772;DHT22;4925;52.588;13.370;2023-02-03T10:01:43;8.00;99.90
9772;DHT22;4925;52.588;13.370;2023-02-03T10:12:24;8.20;99.90
9772;DHT22;4925;52.588;13.370;2023-02-03T10:15:17;8.20;99.90
9772;DHT22;4925;52.588;13.370;2023-02-03T10:18:08;8.20;99.90
9772;DHT22;4925;52.588;13.370;2023-02-03T10:20:41;8.30;99.90
9772;DHT22;4925;52.588;13.370;2023-02-03T10:23:32;8.30;99.90
9772;DHT22;4925;52.588;13.370;2023-02-03T10:26:01;8.40;99.90
9772;DHT22;4925;52.588;13.370;2023-02-03T10:28:31;8.40;99.90
9772;DHT22;4925;52.588;13.370;2023-02-03T10:31:01;8.50;99.90
9772;DHT22;4925;52.588;13.370;2023-02-03T10:33:30;8.50;99.90
9772;DHT22;4925;52.588;13.370;2023-02-03T10:36:19;8.60;99.90
9772;DHT22;4925;52.588;13.370;2023-02-03T10:41:28;8.60;99.90
9772;DHT22;4925;52.588;13.370;2023-02-03T10:43:54;8.50;99.90
9772;DHT22;4925;52.588;13.370;2023-02-03T10:46:29;8.50;99.90
9772;DHT22;4925;52.588;13.370;2023-02-03T10:48:56;8.30;99.90
9772;DHT22;4925;52.588;13.370;2023-02-03T10:53:52;8.10;99.90
9772;DHT22;4925;52.588;13.370;2023-02-03T10:56:36;8.10;99.90
9772;DHT22;4925;52.588;13.370;2023-02-03T10:59:03;8.00;99.90
9772;DHT22;4925;52.588;13.370;2023-02-03T11:01:44;8.10;99.90
9772;DHT22;4925;52.588;13.370;2023-02-03T11:04:32;8.00;99.90
9772;DHT22;4925;52.588;13.370;2023-02-03T11:07:06;8.00;99.90
9772;DHT22;4925;52.588;13.370;2023-02-03T11:09:41;8.00;99.90
9772;DHT22;4925;52.588;13.370;2023-02-03T11:12:15;8.00;99.90
9772;DHT22;4925;52.588;13.370;2023-02-03T11:14:44;8.00;99.90
9772;DHT22;4925;52.588;13.370;2023-02-03T11:19:52;8.00;99.90
9772;DHT22;4925;52.588;13.370;2023-02-03T11:24:52;8.10;99.90
9772;DHT22;4925;52.588;13.370;2023-02-03T11:27:19;8.20;99.90
9772;DHT22;4925;52.588;13.370;2023-02-03T11:29:49;8.30;99.90
9772;DHT22;4925;52.588;13.370;2023-02-03T11:37:42;8.60;99.90
9772;DHT22;4925;52.588;13.370;2023-02-03T11:42:38;8.60;99.90
9772;DHT22;4925;52.588;13.370;2023-02-03T11:51:03;8.60;99.90
9772;DHT22;4925;52.588;13.370;2023-02-03T11:59:06;8.90;99.90
9772;DHT22;4925;52.588;13.370;2023-02-03T12:15:03;9.40;99.90
9772;DHT22;4925;52.588;13.370;2023-02-03T12:26:22;9.40;99.90
9772;DHT22;4925;52.588;13.370;2023-02-03T12:29:11;9.30;99.90
9772;DHT22;4925;52.588;13.370;2023-02-03T12:34:54;9.60;99.90
9772;DHT22;4925;52.588;13.370;2023-02-03T12:37:39;9.60;99.90
9772;DHT22;4925;52.588;13.370;2023-02-03T12:45:35;9.60;99.90
9772;DHT22;4925;52.588;13.370;2023-02-03T12:48:17;9.60;99.90
9772;DHT22;4925;52.588;13.370;2023-02-03T12:50:48;9.60;99.90
9772;DHT22;4925;52.588;13.370;2023-02-03T12:53:16;9.30;99.90
9772;DHT22;4925;52.588;13.370;2023-02-03T12:58:38;7.70;99.90
9772;DHT22;4925;52.588;13.370;2023-02-03T13:01:06;7.00;99.90
9772;DHT22;4925;52.588;13.370;2023-02-03T13:03:45;6.60;99.90
9772;DHT22;4925;52.588;13.370;2023-02-03T13:09:13;6.30;99.90
9772;DHT22;4925;52.588;13.370;2023-02-03T13:12:07;6.30;99.90
9772;DHT22;4925;52.588;13.370;2023-02-03T13:14:39;6.30;99.90
9772;DHT22;4925;52.588;13.370;2023-02-03T13:17:10;6.30;99.90
9772;DHT22;4925;52.588;13.370;2023-02-03T13:19:44;6.40;99.90
9772;DHT22;4925;52.588;13.370;2023-02-03T13:22:12;6.30;99.90
9772;DHT22;4925;52.588;13.370;2023-02-03T13:24:42;6.30;99.90
9772;DHT22;4925;52.588;13.370;2023-02-03T13:33:27;6.20;99.90
9772;DHT22;4925;52.588;13.370;2023-02-03T13:43:48;6.60;99.90
9772;DHT22;4925;52.588;13.370;2023-02-03T13:48:46;6.90;99.90
9772;DHT22;4925;52.588;13.370;2023-02-03T13:51:18;6.90;99.90
9772;DHT22;4925;52.588;13.370;2023-02-03T13:53:46;7.10;99.90
9772;DHT22;4925;52.588;13.370;2023-02-03T13:56:21;7.10;99.90
9772;DHT22;4925;52.588;13.370;2023-02-03T14:01:41;7.30;99.90
9772;DHT22;4925;52.588;13.370;2023-02-03T14:07:25;7.50;99.90
9772;DHT22;4925;52.588;13.370;2023-02-03T14:10:14;7.60;99.90
9772;DHT22;4925;52.588;13.370;2023-02-03T14:18:02;8.00;99.90
9772;DHT22;4925;52.588;13.370;2023-02-03T14:23:05;8.10;99.90
9772;DHT22;4925;52.588;13.370;2023-02-03T14:25:51;8.20;99.90
9772;DHT22;4925;52.588;13.370;2023-02-03T14:28:35;8.20;99.90
9772;DHT22;4925;52.588;13.370;2023-02-03T14:36:44;8.30;99.90
9772;DHT22;4925;52.588;13.370;2023-02-03T14:50:48;8.30;99.90
9772;DHT22;4925;52.588;13.370;2023-02-03T14:55:51;8.30;99.90
9772;DHT22;4925;52.588;13.370;2023-02-03T14:58:29;8.20;99.90
9772;DHT22;4925;52.588;13.370;2023-02-03T15:00:55;8.20;99.90
9772;DHT22;4925;52.588;13.370;2023-02-03T15:03:23;8.10;99.90
9772;DHT22;4925;52.588;13.370;2023-02-03T15:05:51;8.20;99.90
9772;DHT22;4925;52.588;13.370;2023-02-03T15:13:46;8.10;99.90
9772;DHT22;4925;52.588;13.370;2023-02-03T15:16:17;8.00;99.90
9772;DHT22;4925;52.588;13.370;2023-02-03T15:18:43;8.00;99.90
9772;DHT22;4925;52.588;13.370;2023-02-03T15:21:19;8.00;99.90
9772;DHT22;4925;52.588;13.370;2023-02-03T15:23:47;8.00;99.90
9772;DHT22;4925;52.588;13.370;2023-02-03T15:26:22;8.00;99.90
9772;DHT22;4925;52.588;13.370;2023-02-03T15:29:00;8.00;99.90
9772;DHT22;4925;52.588;13.370;2023-02-03T15:31:37;8.00;99.90
9772;DHT22;4925;52.588;13.370;2023-02-03T15:34:29;8.00;99.90
9772;DHT22;4925;52.588;13.370;2023-02-03T15:37:05;8.00;99.90
9772;DHT22;4925;52.588;13.370;2023-02-03T15:40:00;7.90;99.90
9772;DHT22;4925;52.588;13.370;2023-02-03T15:47:35;7.90;99.90
9772;DHT22;4925;52.588;13.370;2023-02-03T15:50:29;7.70;99.90
9772;DHT22;4925;52.588;13.370;2023-02-03T15:53:00;7.70;99.90
9772;DHT22;4925;52.588;13.370;2023-02-03T15:55:35;7.70;99.90
9772;DHT22;4925;52.588;13.370;2023-02-03T15:58:03;7.60;99.90
9772;DHT22;4925;52.588;13.370;2023-02-03T16:00:36;7.60;99.90
9772;DHT22;4925;52.588;13.370;2023-02-03T16:03:06;7.50;99.90
9772;DHT22;4925;52.588;13.370;2023-02-03T16:05:38;7.50;99.90
9772;DHT22;4925;52.588;13.370;2023-02-03T16:08:41;7.40;99.90
9772;DHT22;4925;52.588;13.370;2023-02-03T16:11:21;7.40;99.90
9772;DHT22;4925;52.588;13.370;2023-02-03T16:13:47;7.40;99.90
9772;DHT22;4925;52.588;13.370;2023-02-03T16:16:22;7.40;99.90
9772;DHT22;4925;52.588;13.370;2023-02-03T16:18:51;7.40;99.90
9772;DHT22;4925;52.588;13.370;2023-02-03T16:21:28;7.40;99.90
9772;DHT22;4925;52.588;13.370;2023-02-03T16:23:56;7.40;99.90
9772;DHT22;4925;52.588;13.370;2023-02-03T16:26:23;7.40;99.90
9772;DHT22;4925;52.588;13.370;2023-02-03T16:29:17;7.50;99.90
9772;DHT22;4925;52.588;13.370;2023-02-03T16:32:00;7.40;99.90
9772;DHT22;4925;52.588;13.370;2023-02-03T16:34:45;7.50;99.90
9772;DHT22;4925;52.588;13.370;2023-02-03T16:37:42;7.30;99.90
9772;DHT22;4925;52.588;13.370;2023-02-03T16:40:27;7.30;99.90
9772;DHT22;4925;52.588;13.370;2023-02-03T16:43:14;7.40;99.90
9772;DHT22;4925;52.588;13.370;2023-02-03T16:45:59;7.40;99.90
9772;DHT22;4925;52.588;13.370;2023-02-03T16:48:43;7.30;99.90
9772;DHT22;4925;52.588;13.370;2023-02-03T16:51:39;7.30;99.90
9772;DHT22;4925;52.588;13.370;2023-02-03T16:54:09;7.20;99.90
9772;DHT22;4925;52.588;13.370;2023-02-03T16:56:35;7.20;99.90
9772;DHT22;4925;52.588;13.370;2023-02-03T16:59:01;7.30;99.90
9772;DHT22;4925;52.588;13.370;2023-02-03T17:01:27;7.30;99.90
9772;DHT22;4925;52.588;13.370;2023-02-03T17:03:52;7.20;99.90
9772;DHT22;4925;52.588;13.370;2023-02-03T17:06:18;7.20;99.90
9772;DHT22;4925;52.588;13.370;2023-02-03T17:08:44;7.30;99.90
9772;DHT22;4925;52.588;13.370;2023-02-03T17:11:14;7.20;99.90
9772;DHT22;4925;52.588;13.370;2023-02-03T17:13:40;7.20;99.90
9772;DHT22;4925;52.588;13.370;2023-02-03T17:16:12;7.20;99.90
9772;DHT22;4925;52.588;13.370;2023-02-03T17:18:38;7.30;99.90
9772;DHT22;4925;52.588;13.370;2023-02-03T17:21:06;7.30;99.90
9772;DHT22;4925;52.588;13.370;2023-02-03T17:23:33;7.30;99.90
9772;DHT22;4925;52.588;13.370;2023-02-03T17:25:58;7.40;99.90
9772;DHT22;4925;52.588;13.370;2023-02-03T17:28:24;7.50;99.90
9772;DHT22;4925;52.588;13.370;2023-02-03T17:31:02;7.40;99.90
9772;DHT22;4925;52.588;13.370;2023-02-03T17:33:29;7.40;99.90
9772;DHT22;4925;52.588;13.370;2023-02-03T17:36:10;7.50;99.90
9772;DHT22;4925;52.588;13.370;2023-02-03T17:38:38;7.50;99.90
9772;DHT22;4925;52.588;13.370;2023-02-03T17:41:12;7.40;99.90
9772;DHT22;4925;52.588;13.370;2023-02-03T17:43:40;7.40;99.90
9772;DHT22;4925;52.588;13.370;2023-02-03T17:46:06;7.50;99.90
9772;DHT22;4925;52.588;13.370;2023-02-03T17:48:32;7.50;99.90
9772;DHT22;4925;52.588;13.370;2023-02-03T17:51:13;7.50;99.90
9772;DHT22;4925;52.588;13.370;2023-02-03T17:53:40;7.50;99.90
9772;DHT22;4925;52.588;13.370;2023-02-03T17:56:19;7.60;99.90
9772;DHT22;4925;52.588;13.370;2023-02-03T17:58:46;7.60;99.90
9772;DHT22;4925;52.588;13.370;2023-02-03T18:01:14;7.60;99.90
9772;DHT22;4925;52.588;13.370;2023-02-03T18:03:46;7.60;99.90
9772;DHT22;4925;52.588;13.370;2023-02-03T18:06:13;7.60;99.90
9772;DHT22;4925;52.588;13.370;2023-02-03T18:08:39;7.60;99.90
9772;DHT22;4925;52.588;13.370;2023-02-03T18:11:05;7.60;99.90
9772;DHT22;4925;52.588;13.370;2023-02-03T18:13:33;7.70;99.90
9772;DHT22;4925;52.588;13.370;2023-02-03T18:16:01;7.60;99.90
9772;DHT22;4925;52.588;13.370;2023-02-03T18:18:27;7.60;99.90
9772;DHT22;4925;52.588;13.370;2023-02-03T18:20:53;7.70;99.90
9772;DHT22;4925;52.588;13.370;2023-02-03T18:23:20;7.60;99.90
9772;DHT22;4925;52.588;13.370;2023-02-03T18:25:51;7.70;99.90
9772;DHT22;4925;52.588;13.370;2023-02-03T18:28:17;7.70;99.90
9772;DHT22;4925;52.588;13.370;2023-02-03T18:30:42;7.70;99.90
9772;DHT22;4925;52.588;13.370;2023-02-03T18:33:08;7.60;99.90
9772;DHT22;4925;52.588;13.370;2023-02-03T18:35:34;7.60;99.90
9772;DHT22;4925;52.588;13.370;2023-02-03T18:37:59;7.70;99.90
9772;DHT22;4925;52.588;13.370;2023-02-03T18:40:25;7.70;99.90
9772;DHT22;4925;52.588;13.370;2023-02-03T18:42:50;7.70;99.90
9772;DHT22;4925;52.588;13.370;2023-02-03T18:45:16;7.70;99.90
9772;DHT22;4925;52.588;13.370;2023-02-03T18:47:42;7.60;99.90
9772;DHT22;4925;52.588;13.370;2023-02-03T18:50:08;7.70;99.90
9772;DHT22;4925;52.588;13.370;2023-02-03T18:52:33;7.60;99.90
9772;DHT22;4925;52.588;13.370;2023-02-03T18:54:59;7.80;99.90
9772;DHT22;4925;52.588;13.370;2023-02-03T18:57:25;7.70;99.90
9772;DHT22;4925;52.588;13.370;2023-02-03T18:59:51;7.60;99.90
9772;DHT22;4925;52.588;13.370;2023-02-03T19:02:16;7.60;99.90
9772;DHT22;4925;52.588;13.370;2023-02-03T19:04:42;7.60;99.90